createdAt,value
2022-09-10T00:01:46.272Z,15.06
2022-09-10T00:04:15.328Z,15.07
2022-09-10T00:06:44.045Z,15.07
2022-09-10T00:09:12.978Z,15.09
2022-09-10T00:11:40.908Z,15.04
2022-09-10T00:14:11.868Z,15.07
2022-09-10T00:16:39.091Z,15.05
2022-09-10T00:19:06.679Z,15.10
2022-09-10T00:21:33.941Z,15.10
2022-09-10T00:24:03.343Z,15.10
2022-09-10T00:26:32.492Z,15.12
2022-09-10T00:28:59.709Z,15.08
2022-09-10T00:31:28.335Z,15.06
2022-09-10T00:33:55.774Z,15.03
2022-09-10T00:36:25.347Z,15.05
2022-09-10T00:38:54.664Z,15.05
2022-09-10T00:41:24.802Z,15.04
2022-09-10T00:43:54.667Z,15.05
2022-09-10T00:46:31.352Z,15.05
2022-09-10T00:49:02.019Z,15.07
2022-09-10T00:51:32.991Z,15.07
2022-09-10T00:54:01.251Z,15.04
2022-09-10T00:56:30.252Z,15.06
2022-09-10T00:58:58.141Z,15.03
2022-09-10T01:01:25.765Z,15.03
2022-09-10T01:03:54.270Z,15.03
2022-09-10T01:06:21.747Z,15.00
2022-09-10T01:08:49.042Z,15.01
2022-09-10T01:11:49.556Z,14.96
2022-09-10T01:14:33.128Z,14.95
2022-09-10T01:17:07.281Z,14.86
2022-09-10T01:20:03.734Z,14.85
2022-09-10T01:22:45.307Z,14.83
2022-09-10T01:25:23.143Z,14.83
2022-09-10T01:27:54.633Z,14.88
2022-09-10T01:30:24.931Z,14.87
2022-09-10T01:33:02.403Z,14.90
2022-09-10T01:35:39.621Z,14.89
2022-09-10T01:38:11.313Z,14.90
2022-09-10T01:40:38.833Z,14.93
2022-09-10T01:43:11.644Z,14.93
2022-09-10T01:46:01.716Z,14.96
2022-09-10T01:48:57.146Z,14.93
2022-09-10T01:51:35.527Z,14.91
2022-09-10T01:54:16.823Z,14.93
2022-09-10T01:56:53.818Z,14.90
2022-09-10T01:59:29.419Z,14.94
2022-09-10T02:02:02.364Z,14.93
2022-09-10T02:04:30.464Z,15.00
2022-09-10T02:06:59.264Z,15.04
2022-09-10T02:09:27.387Z,14.97
2022-09-10T02:11:55.744Z,14.99
2022-09-10T02:14:40.226Z,14.98
2022-09-10T02:17:26.118Z,14.98
2022-09-10T02:19:54.617Z,15.05
2022-09-10T02:22:23.091Z,15.01
2022-09-10T02:24:52.064Z,15.01
2022-09-10T02:27:19.360Z,15.00
2022-09-10T02:29:47.983Z,15.00
2022-09-10T02:32:15.644Z,14.99
2022-09-10T02:34:43.053Z,14.97
2022-09-10T02:37:10.315Z,15.00
2022-09-10T02:39:42.844Z,15.00
2022-09-10T02:42:10.153Z,15.04
2022-09-10T02:44:37.424Z,15.05
2022-09-10T02:47:06.308Z,15.02
2022-09-10T02:49:33.675Z,15.08
2022-09-10T02:52:01.797Z,15.04
2022-09-10T02:54:29.461Z,15.02
2022-09-10T02:56:56.964Z,15.04
2022-09-10T02:59:24.545Z,15.03
2022-09-10T03:01:51.905Z,15.01
2022-09-10T03:04:20.541Z,14.99
2022-09-10T03:06:47.804Z,15.01
2022-09-10T03:09:15.141Z,15.00
2022-09-10T03:11:42.615Z,15.00
2022-09-10T03:14:10.812Z,14.99
2022-09-10T03:16:38.314Z,14.99
2022-09-10T03:19:07.137Z,14.99
2022-09-10T03:21:35.779Z,14.97
2022-09-10T03:24:05.166Z,14.94
2022-09-10T03:26:32.745Z,14.95
2022-09-10T03:29:00.010Z,14.98
2022-09-10T03:31:30.408Z,14.96
2022-09-10T03:33:58.532Z,14.95
2022-09-10T03:36:26.282Z,14.94
2022-09-10T03:38:54.976Z,14.91
2022-09-10T03:41:22.315Z,14.92
2022-09-10T03:43:51.950Z,14.94
2022-09-10T03:46:19.236Z,14.96
2022-09-10T03:48:52.030Z,14.94
2022-09-10T03:51:23.861Z,14.97
2022-09-10T03:53:51.090Z,14.94
2022-09-10T03:56:20.869Z,14.95
2022-09-10T03:58:48.327Z,14.96
2022-09-10T04:01:16.260Z,14.95
2022-09-10T04:03:46.787Z,14.90
2022-09-10T04:06:15.623Z,14.93
2022-09-10T04:08:43.121Z,14.87
2022-09-10T04:11:11.596Z,14.84
2022-09-10T04:13:40.237Z,14.87
2022-09-10T04:16:07.723Z,14.89
2022-09-10T04:18:35.300Z,14.90
2022-09-10T04:21:04.010Z,14.90
2022-09-10T04:23:31.419Z,14.93
2022-09-10T04:26:00.256Z,14.95
2022-09-10T04:28:27.576Z,14.96
2022-09-10T04:30:56.856Z,14.96
2022-09-10T04:33:25.698Z,14.94
2022-09-10T04:35:53.533Z,14.93
2022-09-10T04:38:20.893Z,14.91
2022-09-10T04:40:48.639Z,14.91
2022-09-10T04:43:15.907Z,14.90
2022-09-10T04:45:44.080Z,14.91
2022-09-10T04:48:13.763Z,14.93
2022-09-10T04:50:54.004Z,14.91
2022-09-10T04:53:27.350Z,14.93
2022-09-10T04:55:56.258Z,14.93
2022-09-10T04:58:23.674Z,14.96
2022-09-10T05:00:51.149Z,14.99
2022-09-10T05:03:21.393Z,14.95
2022-09-10T05:05:49.479Z,14.93
2022-09-10T05:08:17.208Z,14.93
2022-09-10T05:10:51.625Z,14.97
2022-09-10T05:13:19.031Z,14.98
2022-09-10T05:15:46.260Z,15.01
2022-09-10T05:18:15.475Z,15.01
2022-09-10T05:20:44.560Z,15.03
2022-09-10T05:23:12.161Z,15.07
2022-09-10T05:25:40.053Z,15.08
2022-09-10T05:28:07.532Z,15.09
2022-09-10T05:30:35.052Z,15.15
2022-09-10T05:33:02.995Z,15.18
2022-09-10T05:35:32.602Z,15.19
2022-09-10T05:38:01.542Z,15.19
2022-09-10T05:40:31.486Z,15.19
2022-09-10T05:43:00.016Z,15.24
2022-09-10T05:45:27.399Z,15.25
2022-09-10T05:47:56.401Z,15.30
2022-09-10T05:50:24.366Z,15.28
2022-09-10T05:52:53.178Z,15.35
2022-09-10T05:55:22.197Z,15.36
2022-09-10T05:57:49.416Z,15.38
2022-09-10T06:00:19.517Z,15.42
2022-09-10T06:02:55.896Z,15.42
2022-09-10T06:05:39.125Z,15.49
2022-09-10T06:08:09.009Z,15.52
2022-09-10T06:10:41.948Z,15.57
2022-09-10T06:13:09.566Z,15.61
2022-09-10T06:15:37.071Z,15.57
2022-09-10T06:18:04.413Z,15.56
2022-09-10T06:20:32.746Z,15.62
2022-09-10T06:23:01.238Z,15.71
2022-09-10T06:25:29.046Z,15.84
2022-09-10T06:27:59.127Z,15.87
2022-09-10T06:30:26.850Z,16.00
2022-09-10T06:32:54.157Z,15.97
2022-09-10T06:35:21.598Z,15.93
2022-09-10T06:37:49.896Z,16.01
2022-09-10T06:40:17.263Z,16.03
2022-09-10T06:42:44.752Z,16.05
2022-09-10T06:45:16.050Z,16.12
2022-09-10T06:48:37.806Z,16.32
2022-09-10T06:50:57.952Z,16.37
2022-09-10T06:53:31.074Z,16.35
2022-09-10T06:56:00.109Z,16.33
2022-09-10T06:58:31.527Z,16.32
2022-09-10T07:01:06.045Z,16.46
2022-09-10T07:03:34.717Z,16.47
2022-09-10T07:06:07.174Z,16.32
2022-09-10T07:08:34.733Z,16.55
2022-09-10T07:11:07.000Z,16.49
2022-09-10T07:13:35.142Z,16.50
2022-09-10T07:16:06.246Z,16.46
2022-09-10T07:18:34.188Z,16.48
2022-09-10T07:21:09.646Z,16.49
2022-09-10T07:23:43.052Z,16.66
2022-09-10T07:26:16.271Z,16.71
2022-09-10T07:28:49.829Z,16.64
2022-09-10T07:31:21.231Z,16.77
2022-09-10T07:33:50.809Z,16.77
2022-09-10T07:36:18.468Z,16.86
2022-09-10T07:38:51.048Z,16.75
2022-09-10T07:41:18.753Z,17.02
2022-09-10T07:43:47.824Z,17.24
2022-09-10T07:46:19.750Z,17.21
2022-09-10T07:48:48.118Z,17.14
2022-09-10T07:51:15.718Z,17.11
2022-09-10T07:53:50.256Z,17.41
2022-09-10T07:56:19.042Z,17.43
2022-09-10T07:58:47.022Z,17.56
2022-09-10T08:01:16.345Z,17.58
2022-09-10T08:03:45.962Z,17.63
2022-09-10T08:06:16.260Z,17.76
2022-09-10T08:08:44.736Z,17.69
2022-09-10T08:11:15.523Z,17.50
2022-09-10T08:13:45.808Z,17.58
2022-09-10T08:16:16.914Z,17.70
2022-09-10T08:18:47.249Z,17.56
2022-09-10T08:21:17.420Z,17.92
2022-09-10T08:23:48.880Z,17.74
2022-09-10T08:26:16.589Z,17.75
2022-09-10T08:28:46.041Z,18.23
2022-09-10T08:31:13.860Z,18.13
2022-09-10T08:33:51.799Z,18.30
2022-09-10T08:36:19.744Z,18.39
2022-09-10T08:38:48.783Z,19.08
2022-09-10T08:41:27.279Z,18.57
2022-09-10T08:44:00.052Z,18.65
2022-09-10T08:46:32.183Z,18.59
2022-09-10T08:49:12.051Z,18.53
2022-09-10T08:51:44.363Z,18.62
2022-09-10T08:54:17.722Z,19.25
2022-09-10T08:56:47.561Z,19.26
2022-09-10T08:59:20.206Z,19.01
2022-09-10T09:01:54.373Z,19.25
2022-09-10T09:04:37.032Z,19.71
2022-09-10T09:07:12.900Z,19.92
2022-09-10T09:09:41.876Z,20.08
2022-09-10T09:12:17.736Z,19.89
2022-09-10T09:14:57.939Z,19.71
2022-09-10T09:17:43.620Z,20.26
2022-09-10T09:20:18.078Z,20.12
2022-09-10T09:22:52.140Z,20.98
2022-09-10T09:25:27.694Z,20.88
2022-09-10T09:27:57.540Z,20.48
2022-09-10T09:30:33.963Z,20.74
2022-09-10T09:33:16.774Z,20.95
2022-09-10T09:35:50.821Z,20.97
2022-09-10T09:38:23.069Z,20.89
2022-09-10T09:40:54.984Z,20.83
2022-09-10T09:43:31.822Z,20.49
2022-09-10T09:46:14.345Z,20.19
2022-09-10T09:48:44.846Z,20.21
2022-09-10T09:51:20.171Z,20.48
2022-09-10T09:53:56.909Z,19.73
2022-09-10T09:56:39.041Z,19.76
2022-09-10T09:59:14.771Z,19.69
2022-09-10T10:01:43.857Z,20.01
2022-09-10T10:04:20.917Z,19.82
2022-09-10T10:06:55.727Z,19.28
2022-09-10T10:09:26.569Z,19.45
2022-09-10T10:11:58.125Z,19.51
2022-09-10T10:14:37.620Z,19.86
2022-09-10T10:17:31.394Z,20.43
2022-09-10T10:20:01.678Z,20.97
2022-09-10T10:22:30.741Z,21.24
2022-09-10T10:24:58.717Z,21.10
2022-09-10T10:27:32.223Z,20.49
2022-09-10T10:30:03.607Z,20.81
2022-09-10T10:32:41.814Z,20.86
2022-09-10T10:35:24.435Z,20.54
2022-09-10T10:38:10.736Z,20.61
2022-09-10T10:40:44.708Z,21.00
2022-09-10T10:43:20.864Z,20.73
2022-09-10T10:45:59.288Z,21.06
2022-09-10T10:48:41.816Z,20.69
2022-09-10T10:51:18.453Z,21.11
2022-09-10T10:54:00.424Z,21.89
2022-09-10T10:56:32.327Z,21.77
2022-09-10T10:59:13.075Z,21.95
2022-09-10T11:01:44.576Z,21.98
2022-09-10T11:04:26.112Z,22.25
2022-09-10T11:06:58.733Z,22.56
2022-09-10T11:09:32.687Z,22.17
2022-09-10T11:12:05.441Z,21.88
2022-09-10T11:14:40.937Z,21.74
2022-09-10T11:17:15.618Z,22.80
2022-09-10T11:19:53.359Z,22.73
2022-09-10T11:22:38.045Z,22.68
2022-09-10T11:25:16.448Z,22.59
2022-09-10T11:27:48.544Z,22.67
2022-09-10T11:30:17.305Z,23.05
2022-09-10T11:32:50.002Z,23.61
2022-09-10T11:35:21.980Z,24.58
2022-09-10T11:37:56.432Z,25.22
2022-09-10T11:40:35.029Z,25.91
2022-09-10T11:43:06.647Z,25.45
2022-09-10T11:45:41.351Z,26.03
2022-09-10T11:48:16.369Z,27.17
2022-09-10T11:50:48.714Z,25.80
2022-09-10T11:53:19.173Z,26.49
2022-09-10T11:56:15.291Z,27.26
2022-09-10T11:58:52.722Z,25.99
2022-09-10T12:01:34.953Z,24.79
2022-09-10T12:04:25.588Z,25.21
2022-09-10T12:07:04.289Z,25.57
2022-09-10T12:09:44.366Z,27.73
2022-09-10T12:12:20.311Z,27.65
2022-09-10T12:14:47.797Z,27.28
2022-09-10T12:17:19.103Z,28.07
2022-09-10T12:19:49.841Z,26.58
2022-09-10T12:22:20.504Z,25.29
2022-09-10T12:24:53.708Z,25.81
2022-09-10T12:27:46.433Z,25.78
2022-09-10T12:30:58.454Z,25.00
2022-09-10T12:34:01.144Z,25.66
2022-09-10T12:37:17.011Z,26.20
2022-09-10T12:39:44.505Z,26.19
2022-09-10T12:42:28.530Z,25.04
2022-09-10T12:44:55.832Z,23.89
2022-09-10T12:47:48.421Z,24.74
2022-09-10T12:50:38.945Z,24.13
2022-09-10T12:53:43.896Z,24.30
2022-09-10T12:56:41.102Z,23.54
2022-09-10T12:59:44.124Z,25.31
2022-09-10T13:02:21.917Z,25.97
2022-09-10T13:04:55.255Z,27.82
2022-09-10T13:07:26.569Z,26.46
2022-09-10T13:10:00.223Z,26.73
2022-09-10T13:12:29.365Z,26.47
2022-09-10T13:14:59.359Z,26.42
2022-09-10T13:17:38.058Z,26.38
2022-09-10T13:20:29.419Z,25.39
2022-09-10T13:22:58.880Z,25.96
2022-09-10T13:25:32.641Z,25.31
2022-09-10T13:28:00.092Z,25.67
2022-09-10T13:30:30.022Z,25.43
2022-09-10T13:33:00.525Z,24.61
2022-09-10T13:35:49.838Z,24.86
2022-09-10T13:38:41.100Z,23.98
2022-09-10T13:41:29.261Z,24.03
2022-09-10T13:44:15.338Z,23.86
2022-09-10T13:46:46.923Z,23.64
2022-09-10T13:49:18.991Z,23.70
2022-09-10T13:51:51.134Z,23.86
2022-09-10T13:54:32.314Z,23.23
2022-09-10T13:57:04.230Z,23.83
2022-09-10T13:59:33.367Z,23.96
2022-09-10T14:02:02.089Z,23.93
2022-09-10T14:04:32.714Z,23.78
2022-09-10T14:07:04.267Z,23.60
2022-09-10T14:09:31.784Z,23.50
2022-09-10T14:12:01.765Z,22.72
2022-09-10T14:14:33.723Z,23.06
2022-09-10T14:17:06.100Z,23.02
2022-09-10T14:19:39.460Z,22.72
2022-09-10T14:22:10.089Z,22.60
2022-09-10T14:24:48.120Z,22.33
2022-09-10T14:27:18.125Z,22.30
2022-09-10T14:29:45.681Z,22.15
2022-09-10T14:32:25.933Z,22.21
2022-09-10T14:34:54.661Z,22.12
2022-09-10T14:37:36.218Z,22.18
2022-09-10T14:40:06.607Z,22.14
2022-09-10T14:42:35.229Z,22.35
2022-09-10T14:45:02.683Z,22.21
2022-09-10T14:47:32.932Z,22.16
2022-09-10T14:50:25.668Z,22.05
2022-09-10T14:52:52.928Z,22.23
2022-09-10T14:55:20.490Z,22.35
2022-09-10T14:57:47.734Z,22.06
2022-09-10T15:00:15.856Z,21.92
2022-09-10T15:02:44.496Z,22.28
2022-09-10T15:05:13.768Z,22.28
2022-09-10T15:07:41.118Z,21.89
2022-09-10T15:10:09.113Z,21.59
2022-09-10T15:12:39.259Z,21.83
2022-09-10T15:15:16.424Z,21.95
2022-09-10T15:17:45.834Z,21.66
2022-09-10T15:20:14.799Z,21.51
2022-09-10T15:22:42.674Z,21.38
2022-09-10T15:25:23.163Z,21.53
2022-09-10T15:27:50.436Z,21.52
2022-09-10T15:30:17.749Z,21.74
2022-09-10T15:32:46.369Z,21.48
2022-09-10T15:35:13.895Z,21.26
2022-09-10T15:37:41.321Z,21.18
2022-09-10T15:40:09.624Z,21.30
2022-09-10T15:42:36.968Z,21.05
2022-09-10T15:45:04.641Z,21.18
2022-09-10T15:47:31.923Z,21.07
2022-09-10T15:50:00.523Z,21.07
2022-09-10T15:52:27.791Z,21.18
2022-09-10T15:54:55.071Z,21.73
2022-09-10T15:57:22.381Z,21.38
2022-09-10T15:59:49.648Z,21.32
2022-09-10T16:02:17.012Z,21.66
2022-09-10T16:04:44.764Z,22.78
2022-09-10T16:07:13.455Z,24.05
2022-09-10T16:09:40.772Z,24.48
2022-09-10T16:12:08.073Z,24.30
2022-09-10T16:14:35.310Z,23.94
2022-09-10T16:17:02.549Z,23.58
2022-09-10T16:19:29.751Z,23.01
2022-09-10T16:21:56.980Z,22.51
2022-09-10T16:24:25.605Z,21.63
2022-09-10T16:26:52.842Z,21.36
2022-09-10T16:29:20.299Z,21.33
2022-09-10T16:31:47.978Z,21.98
2022-09-10T16:34:17.250Z,22.62
2022-09-10T16:36:45.432Z,22.84
2022-09-10T16:39:14.023Z,23.25
2022-09-10T16:41:44.516Z,23.49
2022-09-10T16:44:12.934Z,23.35
2022-09-10T16:46:40.568Z,23.48
2022-09-10T16:49:10.625Z,23.50
2022-09-10T16:51:38.310Z,23.08
2022-09-10T16:54:07.107Z,23.07
2022-09-10T16:56:36.918Z,22.80
2022-09-10T16:59:07.001Z,22.80
2022-09-10T17:01:34.613Z,22.03
2022-09-10T17:04:02.970Z,21.47
2022-09-10T17:06:30.936Z,21.14
2022-09-10T17:08:59.946Z,20.88
2022-09-10T17:11:29.596Z,20.49
2022-09-10T17:13:57.767Z,20.65
2022-09-10T17:16:28.269Z,20.10
2022-09-10T17:18:57.594Z,20.08
2022-09-10T17:21:25.120Z,20.10
2022-09-10T17:23:52.828Z,19.92
2022-09-10T17:26:20.476Z,19.81
2022-09-10T17:28:52.505Z,19.80
2022-09-10T17:31:19.831Z,19.76
2022-09-10T17:33:48.573Z,19.65
2022-09-10T17:36:15.977Z,19.53
2022-09-10T17:38:44.105Z,19.38
2022-09-10T17:41:11.445Z,19.34
2022-09-10T17:43:38.753Z,19.31
2022-09-10T17:46:07.554Z,19.09
2022-09-10T17:48:35.486Z,19.02
2022-09-10T17:51:05.340Z,19.07
2022-09-10T17:53:33.215Z,18.98
2022-09-10T17:56:04.724Z,18.93
2022-09-10T17:58:32.721Z,18.95
2022-09-10T18:01:01.572Z,18.77
2022-09-10T18:03:29.040Z,18.81
2022-09-10T18:05:56.229Z,18.76
2022-09-10T18:08:24.861Z,18.67
2022-09-10T18:11:00.906Z,18.73
2022-09-10T18:13:28.221Z,18.66
2022-09-10T18:15:55.519Z,18.55
2022-09-10T18:18:22.815Z,18.52
2022-09-10T18:20:50.133Z,18.43
2022-09-10T18:23:17.320Z,18.44
2022-09-10T18:25:49.798Z,18.31
2022-09-10T18:28:17.303Z,18.30
2022-09-10T18:30:44.914Z,18.27
2022-09-10T18:33:12.287Z,18.22
2022-09-10T18:35:39.480Z,18.15
2022-09-10T18:38:06.705Z,18.11
2022-09-10T18:40:34.736Z,18.00
2022-09-10T18:43:04.535Z,17.96
2022-09-10T18:45:32.581Z,17.99
2022-09-10T18:47:59.797Z,17.90
2022-09-10T18:50:27.071Z,17.82
2022-09-10T18:52:54.328Z,17.81
2022-09-10T18:55:21.606Z,17.74
2022-09-10T18:57:48.853Z,17.60
2022-09-10T19:00:17.532Z,17.60
2022-09-10T19:02:45.042Z,17.70
2022-09-10T19:05:12.730Z,17.53
2022-09-10T19:07:40.134Z,17.36
2022-09-10T19:10:08.102Z,17.28
2022-09-10T19:12:35.729Z,17.24
2022-09-10T19:15:03.688Z,17.21
2022-09-10T19:17:32.472Z,17.25
2022-09-10T19:19:59.931Z,17.17
2022-09-10T19:22:27.291Z,17.15
2022-09-10T19:24:55.869Z,17.13
2022-09-10T19:27:24.079Z,17.01
2022-09-10T19:29:51.553Z,17.01
2022-09-10T19:32:19.276Z,16.91
2022-09-10T19:34:49.177Z,16.89
2022-09-10T19:37:16.553Z,16.88
2022-09-10T19:39:43.924Z,16.88
2022-09-10T19:42:11.525Z,16.77
2022-09-10T19:44:38.704Z,16.77
2022-09-10T19:47:06.008Z,16.70
2022-09-10T19:49:33.348Z,16.60
2022-09-10T19:52:02.328Z,16.55
2022-09-10T19:54:29.584Z,16.53
2022-09-10T19:56:56.818Z,16.54
2022-09-10T19:59:24.187Z,16.52
2022-09-10T20:01:51.478Z,16.50
2022-09-10T20:04:18.765Z,16.44
2022-09-10T20:06:46.142Z,16.40
2022-09-10T20:09:14.815Z,16.33
2022-09-10T20:11:42.052Z,16.27
2022-09-10T20:14:12.677Z,16.25
2022-09-10T20:16:41.191Z,16.23
2022-09-10T20:19:09.094Z,16.19
2022-09-10T20:21:36.597Z,16.19
2022-09-10T20:24:06.517Z,16.15
2022-09-10T20:26:36.781Z,16.12
2022-09-10T20:29:05.846Z,16.07
2022-09-10T20:31:35.435Z,16.07
2022-09-10T20:34:04.528Z,16.05
2022-09-10T20:36:32.880Z,16.07
2022-09-10T20:39:00.374Z,16.14
2022-09-10T20:41:28.220Z,16.04
2022-09-10T20:43:58.236Z,16.05
2022-09-10T20:46:27.251Z,16.11
2022-09-10T20:48:54.588Z,16.11
2022-09-10T20:51:22.348Z,16.09
2022-09-10T20:53:49.691Z,16.07
2022-09-10T20:56:18.754Z,16.07
2022-09-10T20:58:46.820Z,15.92
2022-09-10T21:01:17.441Z,15.97
2022-09-10T21:03:46.378Z,15.95
2022-09-10T21:06:15.722Z,16.00
2022-09-10T21:08:43.277Z,15.91
2022-09-10T21:11:12.534Z,15.97
2022-09-10T21:13:43.617Z,15.90
2022-09-10T21:16:13.454Z,15.87
2022-09-10T21:18:48.768Z,15.89
2022-09-10T21:21:20.491Z,15.81
2022-09-10T21:23:49.712Z,15.73
2022-09-10T21:26:19.289Z,15.69
2022-09-10T21:28:47.427Z,15.69
2022-09-10T21:31:14.878Z,15.69
2022-09-10T21:33:43.494Z,15.63
2022-09-10T21:36:13.241Z,15.62
2022-09-10T21:38:40.729Z,15.64
2022-09-10T21:41:12.068Z,15.62
2022-09-10T21:43:42.563Z,15.70
2022-09-10T21:46:11.021Z,15.62
2022-09-10T21:48:38.344Z,15.60
2022-09-10T21:51:08.439Z,15.59
2022-09-10T21:53:35.788Z,15.58
2022-09-10T21:56:04.383Z,15.64
2022-09-10T21:58:34.009Z,15.69
2022-09-10T22:01:02.087Z,15.65
2022-09-10T22:03:31.295Z,15.63
2022-09-10T22:06:04.968Z,15.56
2022-09-10T22:08:33.876Z,15.53
2022-09-10T22:11:08.115Z,15.56
2022-09-10T22:13:36.186Z,15.54
2022-09-10T22:16:04.874Z,15.51
2022-09-10T22:18:32.773Z,15.41
2022-09-10T22:21:00.646Z,15.43
2022-09-10T22:23:29.222Z,15.40
2022-09-10T22:26:02.187Z,15.41
2022-09-10T22:28:33.071Z,15.41
2022-09-10T22:31:06.827Z,15.33
2022-09-10T22:33:34.361Z,15.31
2022-09-10T22:36:12.528Z,15.33
2022-09-10T22:38:40.335Z,15.31
2022-09-10T22:41:09.879Z,15.24
2022-09-10T22:43:37.740Z,15.23
2022-09-10T22:46:05.982Z,15.23
2022-09-10T22:48:34.040Z,15.23
2022-09-10T22:51:01.272Z,15.18
2022-09-10T22:53:28.515Z,15.13
2022-09-10T22:55:55.823Z,15.05
2022-09-10T22:58:25.015Z,15.06
2022-09-10T23:00:52.457Z,14.98
2022-09-10T23:03:20.050Z,14.98
2022-09-10T23:05:47.424Z,14.93
2022-09-10T23:08:14.964Z,14.97
2022-09-10T23:10:42.211Z,14.90
2022-09-10T23:13:09.784Z,14.85
2022-09-10T23:15:38.495Z,14.87
2022-09-10T23:18:05.972Z,14.83
2022-09-10T23:20:33.240Z,14.82
2022-09-10T23:23:00.548Z,14.90
2022-09-10T23:25:27.907Z,14.86
2022-09-10T23:27:55.204Z,14.84
2022-09-10T23:30:22.467Z,14.85
2022-09-10T23:32:51.313Z,14.84
2022-09-10T23:35:18.558Z,14.89
2022-09-10T23:37:45.889Z,14.81
2022-09-10T23:40:13.185Z,14.81
2022-09-10T23:42:40.505Z,14.78
2022-09-10T23:45:08.780Z,14.76
2022-09-10T23:47:36.157Z,14.90
2022-09-10T23:50:05.432Z,14.93
2022-09-10T23:52:32.637Z,14.97
2022-09-10T23:55:00.084Z,14.97
2022-09-10T23:57:27.308Z,15.06
2022-09-10T23:59:54.677Z,15.09
